Terminal Aerodrome Forecast
Issued by NWS Grand Forks, ND

Home | Current Version | Previous Version | Text Only | Print | Product List | Glossary Off
Versions: 1 2 3 4 5 6 7 8 9 10 11 12 13 14 15 16 17

536
FTUS43 KFGF 161734
TAFGFK
TAF
KGFK 161734Z 1618/1718 19013KT P6SM BKN200
     FM170300 22011KT P6SM BKN090
     FM171200 29008KT P6SM BKN110
     FM171400 30008KT P6SM SCT090
     FM171700 30012KT P6SM SCT150=

USA.gov is the U.S. government's official web portal to all federal, state and local government web resources and services.